Time;durP1;ratioP1;P1;durP2;ratioP2;P2;SDS_P1;SDS_P2;PMS_P1;PMS_P2;Temp;Humidity;BMP_temperature;BMP_pressure;BME280_temperature;BME280_humidity;BME280_pressure;Samples;Min_cycle;Max_cycle;Signal;HPM_P1;HPM_P2
2022/11/24 00:01:31;;;;;;;5.57;1.00;;;;;;;;;;5084228;28;20111;-60
2022/11/24 00:04:27;;;;;;;2.38;0.68;;;;;;;;;;5091898;28;20086;-59
2022/11/24 00:10:19;;;;;;;3.30;1.25;;;;;;;;;;5082690;28;20047;-59
2022/11/24 00:13:13;;;;;;;15.20;1.92;;;;;;;;;;5092330;28;20430;-59
2022/11/24 00:15:52;;;;;;;1.85;0.82;;;;;;;;;;5073896;28;20060;-59
2022/11/24 00:18:57;;;;;;;;;;;;;;;;;;;;;
2022/11/24 00:27:46;;;;;;;5.32;1.42;;;;;;;;;;5069081;28;20440;-60
2022/11/24 00:33:05;;;;;;;3.28;1.25;;;;;;;;;;5071373;28;20028;-59
2022/11/24 00:35:47;;;;;;;4.50;1.67;;;;;;;;;;5071151;28;20028;-59
2022/11/24 00:38:36;;;;;;;8.82;1.35;;;;;;;;;;5053527;28;20044;-59
2022/11/24 00:44:43;;;;;;;3.95;1.50;;;;;;;;;;4990025;28;20111;-59
2022/11/24 00:47:35;;;;;;;;;;;;;;;;;;;;;
2022/11/24 00:50:39;;;;;;;4.97;1.08;;;;;;;;;;4989963;28;19953;-59
2022/11/24 00:53:17;;;;;;;1.63;0.73;;;;;;;;;;4990237;28;20030;-59
2022/11/24 00:55:49;;;;;;;6.72;3.42;;;;;;;;;;4988248;28;20049;-60
2022/11/24 00:58:19;;;;;;;3.28;1.42;;;;;;;;;;4988899;28;20039;-59
2022/11/24 01:01:02;;;;;;;4.00;1.58;;;;;;;;;;4987152;28;20038;-59
2022/11/24 01:03:35;;;;;;;7.18;1.17;;;;;;;;;;4967555;28;20108;-59
2022/11/24 01:06:18;;;;;;;1.73;1.08;;;;;;;;;;4971938;28;20094;-60
2022/11/24 01:09:14;;;;;;;6.05;1.98;;;;;;;;;;5042147;28;20104;-59
2022/11/24 01:12:01;;;;;;;3.00;1.05;;;;;;;;;;5046051;28;20068;-61
2022/11/24 01:14:45;;;;;;;5.47;1.60;;;;;;;;;;5055061;28;20080;-60
2022/11/24 01:17:48;;;;;;;3.63;1.20;;;;;;;;;;5059278;28;20051;-59
2022/11/24 01:20:19;;;;;;;9.88;1.65;;;;;;;;;;5090503;28;20025;-59
2022/11/24 01:22:54;;;;;;;;;;;;;;;;;;5090029;28;20032;-59
2022/11/24 01:25:34;;;;;;;1.48;0.73;;;;;;;;;;5069715;28;19911;-60
2022/11/24 01:28:30;;;;;;;8.98;2.38;;;;;;;;;;5089378;28;20037;-59
2022/11/24 01:31:13;;;;;;;3.60;1.65;;;;;;;;;;5089031;28;20028;-59
2022/11/24 01:33:45;;;;;;;2.67;0.88;;;;;;;;;;5089205;28;20025;-59
2022/11/24 01:36:33;;;;;;;3.22;1.35;;;;;;;;;;5088384;28;20025;-60
2022/11/24 01:39:15;;;;;;;5.10;1.02;;;;;;;;;;5089314;28;20039;-59
2022/11/24 01:45:08;;;;;;;6.65;1.63;;;;;;;;;;5064993;28;20032;-60
2022/11/24 01:51:03;;;;;;;3.53;1.55;;;;;;;;;;5085042;28;20079;-59
2022/11/24 01:54:14;;;;;;;5.35;1.02;;;;;;;;;;5089192;28;20032;-60
2022/11/24 01:56:41;;;;;;;3.55;1.45;;;;;;;;;;4985395;28;20035;-59
2022/11/24 01:59:34;;;;;;;2.83;0.75;;;;;;;;;;5007346;28;20063;-59
2022/11/24 02:02:14;;;;;;;2.55;0.90;;;;;;;;;;5006982;28;20034;-59
2022/11/24 02:07:51;;;;;;;1.65;0.70;;;;;;;;;;5033581;28;20124;-59
2022/11/24 02:10:22;;;;;;;1.70;0.80;;;;;;;;;;5088125;28;20028;-59
2022/11/24 02:16:24;;;;;;;3.22;0.70;;;;;;;;;;4985663;28;20030;-60
2022/11/24 02:19:25;;;;;;;8.25;0.77;;;;;;;;;;5025301;28;20044;-59
2022/11/24 02:22:29;;;;;;;2.22;1.60;;;;;;;;;;5081339;28;20100;-59
2022/11/24 02:28:19;;;;;;;4.28;1.63;;;;;;;;;;5082745;28;20036;-59
2022/11/24 02:31:05;;;;;;;3.33;1.38;;;;;;;;;;5087502;28;20084;-59
2022/11/24 02:34:00;;;;;;;4.15;1.08;;;;;;;;;;5069227;28;20035;-59
2022/11/24 02:36:26;;;;;;;9.30;1.25;;;;;;;;;;5084894;28;20039;-59
2022/11/24 02:39:18;;;;;;;4.68;1.50;;;;;;;;;;5088602;28;20028;-59
2022/11/24 02:42:04;;;;;;;2.83;1.45;;;;;;;;;;5088255;28;20033;-59
2022/11/24 02:44:44;;;;;;;1.83;1.60;;;;;;;;;;5088435;28;20115;-59
2022/11/24 02:47:35;;;;;;;1.63;0.82;;;;;;;;;;5070863;28;20092;-59
2022/11/24 02:50:34;;;;;;;;;;;;;;;;;;;;;
2022/11/24 02:59:32;;;;;;;0.80;0.50;;;;;;;;;;5087515;28;20035;-59
2022/11/24 03:02:25;;;;;;;0.95;0.63;;;;;;;;;;5087411;28;20020;-59
2022/11/24 03:05:07;;;;;;;0.65;0.30;;;;;;;;;;5088018;28;20051;-59
2022/11/24 03:10:42;;;;;;;3.05;1.20;;;;;;;;;;5087666;28;20043;-59
2022/11/24 03:13:45;;;;;;;;;;;;;;;;;;;;;
2022/11/24 03:16:44;;;;;;;1.23;0.65;;;;;;;;;;5084561;28;20028;-60
2022/11/24 03:25:26;;;;;;;11.60;1.35;;;;;;;;;;5055753;28;20471;-61
2022/11/24 03:27:59;;;;;;;1.73;0.75;;;;;;;;;;5086275;28;20028;-59
2022/11/24 03:30:44;;;;;;;1.60;0.70;;;;;;;;;;5087010;28;20051;-59
2022/11/24 03:33:30;;;;;;;;;;;;;;;;;;;;;
2022/11/24 03:39:09;;;;;;;2.90;2.05;;;;;;;;;;5087458;28;20508;-59
2022/11/24 03:44:56;;;;;;;3.42;1.13;;;;;;;;;;5025866;28;20094;-59
2022/11/24 03:47:30;;;;;;;1.77;1.00;;;;;;;;;;5026100;28;20054;-59
2022/11/24 03:50:11;;;;;;;3.42;1.48;;;;;;;;;;5026011;28;20038;-59
2022/11/24 03:52:41;;;;;;;;;;;;;;;;;;5026522;28;20042;-59
2022/11/24 03:55:43;;;;;;;5.05;1.10;;;;;;;;;;5025660;28;19905;-59
2022/11/24 03:58:22;;;;;;;1.63;0.73;;;;;;;;;;5026262;28;20122;-59
2022/11/24 04:00:54;;;;;;;1.50;0.60;;;;;;;;;;5025576;28;20042;-59
2022/11/24 04:03:45;;;;;;;2.08;0.90;;;;;;;;;;5025517;28;20034;-59
2022/11/24 04:06:28;;;;;;;2.60;1.15;;;;;;;;;;5025787;28;20458;-59
2022/11/24 04:09:30;;;;;;;1.88;1.00;;;;;;;;;;5025089;28;20129;-59
2022/11/24 04:15:02;;;;;;;3.45;1.77;;;;;;;;;;5045308;28;20048;-59
2022/11/24 04:17:38;;;;;;;2.33;0.70;;;;;;;;;;5045058;28;20057;-59
2022/11/24 04:20:14;;;;;;;;;;;;;;;;;;;;;
2022/11/24 04:23:13;;;;;;;3.10;0.73;;;;;;;;;;5044139;28;20061;-59
2022/11/24 04:25:52;;;;;;;5.53;1.27;;;;;;;;;;5045092;28;20064;-59
2022/11/24 04:31:47;;;;;;;2.90;0.85;;;;;;;;;;5052765;28;20063;-59
2022/11/24 04:34:31;;;;;;;3.83;1.23;;;;;;;;;;5073889;28;20039;-59
2022/11/24 04:40:31;;;;;;;1.23;0.57;;;;;;;;;;5075830;28;20485;-59
2022/11/24 04:43:22;;;;;;;;;;;;;;;;;;;;;
2022/11/24 04:49:10;;;;;;;2.60;0.70;;;;;;;;;;4995323;28;20041;-59
2022/11/24 04:52:07;;;;;;;4.03;1.80;;;;;;;;;;5065079;28;20103;-59
2022/11/24 04:58:01;;;;;;;1.83;0.75;;;;;;;;;;5063770;28;20482;-60
2022/11/24 05:00:30;;;;;;;1.17;0.55;;;;;;;;;;5046592;28;20040;-59
2022/11/24 05:03:38;;;;;;;0.98;0.55;;;;;;;;;;5076478;28;20163;-59
2022/11/24 05:06:07;;;;;;;0.60;0.30;;;;;;;;;;5071248;28;20120;-59
2022/11/24 05:14:51;;;;;;;4.53;0.77;;;;;;;;;;4994985;28;20037;-59
2022/11/24 05:18:41;;;;;;;4.25;1.20;;;;;;;;;;5034402;28;20084;-59
2022/11/24 05:21:09;;;;;;;2.95;1.33;;;;;;;;;;5013007;28;20184;-59
2022/11/24 05:26:49;;;;;;;2.83;1.02;;;;;;;;;;5014350;28;20060;-59
2022/11/24 05:38:57;;;;;;;7.95;1.45;;;;;;;;;;5032572;28;20123;-59
2022/11/24 05:41:34;;;;;;;0.80;0.50;;;;;;;;;;5075850;28;20036;-59
2022/11/24 05:47:34;;;;;;;2.72;0.95;;;;;;;;;;5075773;28;20040;-59
2022/11/24 05:56:18;;;;;;;3.72;1.13;;;;;;;;;;5044824;28;20416;-59
2022/11/24 05:59:24;;;;;;;5.80;1.85;;;;;;;;;;5076277;28;20102;-59
2022/11/24 06:05:09;;;;;;;3.20;1.20;;;;;;;;;;4994216;28;20569;-59
2022/11/24 06:07:51;;;;;;;5.22;1.52;;;;;;;;;;4995081;28;20046;-59
2022/11/24 06:13:58;;;;;;;9.27;2.10;;;;;;;;;;4976245;28;20504;-59
2022/11/24 06:19:46;;;;;;;3.03;1.25;;;;;;;;;;4995493;28;20064;-57
2022/11/24 06:28:53;;;;;;;5.53;1.58;;;;;;;;;;5075223;28;20480;-57
2022/11/24 06:31:31;;;;;;;3.65;1.13;;;;;;;;;;5057071;28;20053;-55
2022/11/24 06:37:10;;;;;;;3.47;1.23;;;;;;;;;;5054593;28;20054;-57
2022/11/24 06:39:52;;;;;;;7.07;1.30;;;;;;;;;;5035530;28;20068;-57
2022/11/24 06:43:01;;;;;;;;;;;;;;;;;;;;;
2022/11/24 06:48:22;;;;;;;8.48;6.38;;;;;;;;;;5074357;28;20073;-57
2022/11/24 06:54:23;;;;;;;6.75;1.15;;;;;;;;;;5075114;28;20402;-56
2022/11/24 06:57:05;;;;;;;8.52;3.15;;;;;;;;;;5074033;28;20166;-57
2022/11/24 07:05:38;;;;;;;;;;;;;;;;;;;;;
2022/11/24 07:08:51;;;;;;;3.47;1.35;;;;;;;;;;5071086;28;20059;-56
2022/11/24 07:11:22;;;;;;;4.35;1.48;;;;;;;;;;5025221;28;20044;-57
2022/11/24 07:13:50;;;;;;;2.90;1.23;;;;;;;;;;5033091;28;20038;-57
2022/11/24 07:16:54;;;;;;;4.13;1.88;;;;;;;;;;4973499;28;20489;-57
2022/11/24 07:19:52;;;;;;;12.98;2.22;;;;;;;;;;4973305;28;20567;-57
2022/11/24 07:26:08;;;;;;;8.40;1.80;;;;;;;;;;4944727;28;20512;-57
2022/11/24 07:29:24;;;;;;;3.17;1.05;;;;;;;;;;4938222;28;20050;-57
2022/11/24 07:38:21;;;;;;;8.77;1.98;;;;;;;;;;4973687;28;20041;-57
2022/11/24 07:41:08;;;;;;;5.20;1.60;;;;;;;;;;4951286;28;20425;-57
2022/11/24 07:44:08;;;;;;;;;;;;;;;;;;;;;
2022/11/24 07:46:58;;;;;;;8.13;1.65;;;;;;;;;;5010547;28;20028;-56
2022/11/24 07:49:52;;;;;;;3.90;1.30;;;;;;;;;;4957240;28;20118;-58
2022/11/24 07:56:08;;;;;;;2.88;1.10;;;;;;;;;;5031949;28;20056;-57
2022/11/24 07:58:56;;;;;;;2.38;1.17;;;;;;;;;;5032390;28;20037;-56
2022/11/24 08:05:18;;;;;;;6.35;1.42;;;;;;;;;;5050840;28;20089;-57
2022/11/24 08:11:31;;;;;;;4.03;1.52;;;;;;;;;;5053329;28;20040;-57
2022/11/24 08:14:20;;;;;;;2.97;0.85;;;;;;;;;;5035704;28;20514;-57
2022/11/24 08:17:16;;;;;;;7.43;1.67;;;;;;;;;;5067509;28;20025;-57
2022/11/24 08:23:02;;;;;;;3.28;1.00;;;;;;;;;;5034345;28;20356;-57
2022/11/24 08:31:18;;;;;;;4.47;2.33;;;;;;;;;;5058068;28;20060;-57
2022/11/24 08:33:50;;;;;;;5.55;1.75;;;;;;;;;;5035935;28;20120;-56
2022/11/24 08:42:37;;;;;;;9.05;1.45;;;;;;;;;;4954960;28;20089;-58
2022/11/24 08:45:04;;;;;;;11.52;1.92;;;;;;;;;;4976446;28;20432;-59
2022/11/24 08:48:00;;;;;;;2.97;1.42;;;;;;;;;;4975457;28;20067;-56
2022/11/24 08:50:52;;;;;;;1.90;0.88;;;;;;;;;;4956729;29;20489;-57
2022/11/24 08:53:42;;;;;;;2.53;0.73;;;;;;;;;;4953788;29;20422;-56
2022/11/24 09:02:44;;;;;;;4.03;1.17;;;;;;;;;;4964373;28;20068;-58
2022/11/24 09:05:55;;;;;;;1.48;0.95;;;;;;;;;;5006336;28;20073;-58
2022/11/24 09:11:47;;;;;;;5.07;1.20;;;;;;;;;;5015182;28;20459;-57
2022/11/24 09:20:14;;;;;;;6.40;1.10;;;;;;;;;;5076295;28;20040;-58
2022/11/24 09:23:18;;;;;;;;;;;;;;;;;;;;;
2022/11/24 09:26:00;;;;;;;3.85;1.08;;;;;;;;;;5075130;28;20031;-58
2022/11/24 09:28:53;;;;;;;3.42;0.82;;;;;;;;;;5076726;28;20028;-59
2022/11/24 09:31:40;;;;;;;1.63;0.73;;;;;;;;;;5022076;28;20494;-59
2022/11/24 09:34:29;;;;;;;3.13;0.80;;;;;;;;;;5053083;28;20559;-59
2022/11/24 09:37:22;;;;;;;2.53;1.10;;;;;;;;;;5060690;28;20029;-59
2022/11/24 09:43:30;;;;;;;0.73;0.40;;;;;;;;;;5057583;28;20047;-57
2022/11/24 09:49:47;;;;;;;0.68;0.25;;;;;;;;;;4974762;28;20058;-57
2022/11/24 09:52:36;;;;;;;0.57;0.32;;;;;;;;;;4951899;28;20053;-56
2022/11/24 09:55:06;;;;;;;0.82;0.30;;;;;;;;;;4975565;28;20517;-57
2022/11/24 09:57:56;;;;;;;2.65;0.65;;;;;;;;;;4977590;28;20058;-56
2022/11/24 10:07:17;;;;;;;1.40;0.60;;;;;;;;;;4992906;28;20416;-57
2022/11/24 10:10:05;;;;;;;5.72;0.55;;;;;;;;;;5031670;28;20048;-58
2022/11/24 10:12:46;;;;;;;0.45;0.28;;;;;;;;;;5023375;28;20040;-58
2022/11/24 10:15:32;;;;;;;0.98;0.35;;;;;;;;;;5057070;28;20071;-57
2022/11/24 10:18:35;;;;;;;;;;;;;;;;;;;;;
2022/11/24 10:21:39;;;;;;;1.08;0.40;;;;;;;;;;5055772;28;20120;-57
2022/11/24 10:27:32;;;;;;;2.85;0.40;;;;;;;;;;5023817;28;20120;-57
2022/11/24 10:33:44;;;;;;;1.05;0.45;;;;;;;;;;4973772;28;20117;-57
2022/11/24 10:36:32;;;;;;;4.38;0.30;;;;;;;;;;5032260;28;20083;-56
2022/11/24 10:42:26;;;;;;;1.17;0.45;;;;;;;;;;5055435;28;20170;-57
2022/11/24 10:45:36;;;;;;;2.10;0.60;;;;;;;;;;5037579;28;20060;-57
2022/11/24 10:48:26;;;;;;;0.85;0.35;;;;;;;;;;5055511;28;20498;-55
2022/11/24 10:54:17;;;;;;;0.85;0.40;;;;;;;;;;5055027;28;20048;-57
2022/11/24 10:57:07;;;;;;;;;;;;;;;;;;;;;
2022/11/24 11:03:10;;;;;;;;;;;;;;;;;;;;;
2022/11/24 11:05:50;;;;;;;0.30;0.10;;;;;;;;;;5032461;28;20031;-58
2022/11/24 11:08:26;;;;;;;0.63;0.20;;;;;;;;;;5049386;28;20033;-57
2022/11/24 11:11:14;;;;;;;0.28;0.10;;;;;;;;;;5053248;28;20059;-58
2022/11/24 11:13:58;;;;;;;0.43;0.17;;;;;;;;;;5053768;28;20017;-57
2022/11/24 11:16:49;;;;;;;1.98;0.30;;;;;;;;;;5036955;28;20036;-57
2022/11/24 11:19:31;;;;;;;;;;;;;;;;;;;;;
2022/11/24 11:25:18;;;;;;;0.88;0.45;;;;;;;;;;5074168;28;20490;-58
2022/11/24 11:27:53;;;;;;;0.68;0.20;;;;;;;;;;5073719;28;20063;-57
2022/11/24 11:33:46;;;;;;;0.43;0.22;;;;;;;;;;5072187;28;20032;-59
2022/11/24 11:36:32;;;;;;;0.93;0.65;;;;;;;;;;5086653;28;20062;-58
2022/11/24 11:42:26;;;;;;;0.60;0.13;;;;;;;;;;5042263;28;20060;-57
2022/11/24 11:45:25;;;;;;;1.52;0.50;;;;;;;;;;5016614;28;20033;-58
2022/11/24 11:48:10;;;;;;;1.33;0.50;;;;;;;;;;5053388;28;20505;-58
2022/11/24 11:51:00;;;;;;;1.33;0.30;;;;;;;;;;5078769;28;20027;-58
2022/11/24 11:54:10;;;;;;;4.43;0.73;;;;;;;;;;5059410;28;20113;-58
2022/11/24 11:57:21;;;;;;;;;;;;;;;;;;;;;
2022/11/24 12:00:11;;;;;;;1.55;0.52;;;;;;;;;;4949748;28;20429;-58
2022/11/24 12:03:12;;;;;;;0.45;0.20;;;;;;;;;;4960718;28;20150;-58
2022/11/24 12:12:35;;;;;;;;;;;;;;;;;;;;;
2022/11/24 12:15:23;;;;;;;1.80;0.40;;;;;;;;;;5055660;28;20453;-58
2022/11/24 12:17:54;;;;;;;0.57;0.38;;;;;;;;;;5038905;28;20053;-58
2022/11/24 12:20:42;;;;;;;0.47;0.30;;;;;;;;;;5032526;28;20064;-58
2022/11/24 12:23:23;;;;;;;2.15;0.70;;;;;;;;;;5039090;28;20588;-58
2022/11/24 12:29:01;;;;;;;0.82;0.40;;;;;;;;;;5055571;28;20043;-58
2022/11/24 12:34:53;;;;;;;1.50;0.65;;;;;;;;;;5055961;28;20446;-58
2022/11/24 12:41:27;;;;;;;1.75;0.73;;;;;;;;;;5072467;28;20045;-56
2022/11/24 12:46:48;;;;;;;2.10;0.40;;;;;;;;;;5078096;28;20047;-58
2022/11/24 12:49:33;;;;;;;0.93;0.38;;;;;;;;;;5077431;28;20042;-57
2022/11/24 12:52:29;;;;;;;3.95;0.60;;;;;;;;;;5077511;28;20043;-58
2022/11/24 13:04:17;;;;;;;0.93;0.57;;;;;;;;;;5070622;28;20024;-58
2022/11/24 13:10:52;;;;;;;2.55;0.77;;;;;;;;;;5063202;28;20378;-56
2022/11/24 13:13:26;;;;;;;4.07;1.35;;;;;;;;;;5076339;28;20054;-56
2022/11/24 13:16:04;;;;;;;0.32;0.15;;;;;;;;;;5036604;28;20490;-57
2022/11/24 13:19:08;;;;;;;;;;;;;;;;;;;;;
2022/11/24 13:28:42;;;;;;;2.15;0.70;;;;;;;;;;5022534;28;20048;-58
2022/11/24 13:31:39;;;;;;;11.90;1.33;;;;;;;;;;5039772;28;20061;-57
2022/11/24 13:34:42;;;;;;;2.00;0.80;;;;;;;;;;5033768;28;20309;-57
2022/11/24 13:37:35;;;;;;;6.53;0.80;;;;;;;;;;5055931;28;20090;-57
2022/11/24 13:40:10;;;;;;;1.45;0.65;;;;;;;;;;5055094;28;20036;-58
2022/11/24 13:43:00;;;;;;;2.28;0.70;;;;;;;;;;5055674;28;20565;-56
2022/11/24 13:45:48;;;;;;;6.50;0.40;;;;;;;;;;5036503;28;20124;-58
2022/11/24 13:48:29;;;;;;;4.18;1.27;;;;;;;;;;5037773;28;20112;-57
2022/11/24 13:51:16;;;;;;;2.00;0.43;;;;;;;;;;4994164;28;20042;-57
2022/11/24 13:54:01;;;;;;;2.17;0.57;;;;;;;;;;4994524;28;20034;-59
2022/11/24 13:56:48;;;;;;;3.95;0.50;;;;;;;;;;4977437;28;20512;-57
2022/11/24 13:59:44;;;;;;;2.58;0.82;;;;;;;;;;4977690;28;20492;-57
2022/11/24 14:02:29;;;;;;;3.25;1.10;;;;;;;;;;4985934;28;20400;-58
2022/11/24 14:08:17;;;;;;;6.22;0.93;;;;;;;;;;4993764;28;20550;-58
2022/11/24 14:11:19;;;;;;;1.92;0.93;;;;;;;;;;4994310;28;20053;-58
2022/11/24 14:13:52;;;;;;;1.75;0.73;;;;;;;;;;4955616;29;20059;-57
2022/11/24 14:16:40;;;;;;;2.30;0.70;;;;;;;;;;4954331;29;20035;-57
2022/11/24 14:19:46;;;;;;;3.03;0.93;;;;;;;;;;4964479;28;20055;-58
2022/11/24 14:22:27;;;;;;;2.15;0.40;;;;;;;;;;5009201;28;20116;-57
2022/11/24 14:28:46;;;;;;;4.45;1.25;;;;;;;;;;5050130;28;20036;-57
2022/11/24 14:31:44;;;;;;;1.60;0.55;;;;;;;;;;5076006;28;20111;-57
2022/11/24 14:37:50;;;;;;;1.70;0.75;;;;;;;;;;5032381;28;20032;-57
2022/11/24 14:40:38;;;;;;;2.60;0.60;;;;;;;;;;4942144;29;20054;-57
2022/11/24 14:43:38;;;;;;;4.22;0.65;;;;;;;;;;4954515;29;20036;-57
2022/11/24 14:46:27;;;;;;;6.25;1.00;;;;;;;;;;5073846;28;20120;-57
2022/11/24 14:52:52;;;;;;;0.93;0.50;;;;;;;;;;5074820;28;20048;-56
2022/11/24 14:55:38;;;;;;;2.53;0.95;;;;;;;;;;4969468;28;20043;-56
2022/11/24 14:58:24;;;;;;;4.47;1.10;;;;;;;;;;4973450;28;20031;-57
2022/11/24 15:01:15;;;;;;;3.15;0.68;;;;;;;;;;4957646;28;20084;-57
2022/11/24 15:03:41;;;;;;;;;;;;;;;;;;4973038;28;20046;-57
2022/11/24 15:16:26;;;;;;;4.80;1.42;;;;;;;;;;5058883;28;20154;-56
2022/11/24 15:19:47;;;;;;;2.30;1.30;;;;;;;;;;4953328;28;20429;-58
2022/11/24 15:31:44;;;;;;;0.75;0.40;;;;;;;;;;4933683;29;20475;-58
2022/11/24 15:34:33;;;;;;;1.23;0.50;;;;;;;;;;4953279;29;20043;-58
2022/11/24 15:37:08;;;;;;;2.13;1.00;;;;;;;;;;5005374;28;20056;-55
2022/11/24 15:39:46;;;;;;;4.50;1.42;;;;;;;;;;5031530;28;20454;-57
2022/11/24 15:42:25;;;;;;;1.73;0.85;;;;;;;;;;5031097;28;20029;-56
2022/11/24 15:45:01;;;;;;;4.30;2.00;;;;;;;;;;5035649;28;20429;-57
2022/11/24 15:47:36;;;;;;;6.65;1.48;;;;;;;;;;5053949;28;20029;-55
2022/11/24 15:50:15;;;;;;;1.85;0.80;;;;;;;;;;5053880;28;20371;-57
2022/11/24 15:53:01;;;;;;;4.60;1.20;;;;;;;;;;5053467;28;20052;-57
2022/11/24 15:58:58;;;;;;;;;;;;;;;;;;;;;
2022/11/24 16:01:45;;;;;;;2.50;1.00;;;;;;;;;;5053629;28;20364;-55
2022/11/24 16:04:27;;;;;;;5.32;1.58;;;;;;;;;;5035481;28;20124;-55
2022/11/24 16:10:02;;;;;;;3.47;1.67;;;;;;;;;;5046157;28;20045;-58
2022/11/24 16:13:05;;;;;;;13.30;5.03;;;;;;;;;;5052879;28;20102;-58
2022/11/24 16:21:56;;;;;;;6.95;4.43;;;;;;;;;;5072954;28;20048;-57
2022/11/24 16:25:08;;;;;;;;;;;;;;;;;;;;;
2022/11/24 16:27:53;;;;;;;5.40;2.40;;;;;;;;;;5057429;28;20042;-58
2022/11/24 16:30:48;;;;;;;4.85;2.65;;;;;;;;;;5073618;28;20029;-58
2022/11/24 16:33:39;;;;;;;4.10;2.45;;;;;;;;;;5072336;28;20035;-57
2022/11/24 16:36:34;;;;;;;;;;;;;;;;;;;;;
2022/11/24 16:39:09;;;;;;;4.53;2.38;;;;;;;;;;5077416;28;20032;-55
2022/11/24 16:41:52;;;;;;;5.53;2.03;;;;;;;;;;5077202;28;20025;-58
2022/11/24 16:44:37;;;;;;;2.75;0.88;;;;;;;;;;5077634;28;20029;-58
2022/11/24 16:50:17;;;;;;;2.17;1.20;;;;;;;;;;5071875;28;20060;-57
2022/11/24 16:53:21;;;;;;;6.72;2.50;;;;;;;;;;5059520;28;20039;-58
2022/11/24 16:56:05;;;;;;;2.28;1.42;;;;;;;;;;5058075;28;20032;-58
2022/11/24 16:58:52;;;;;;;9.32;2.67;;;;;;;;;;5077470;28;20033;-58
2022/11/24 17:01:57;;;;;;;4.18;1.70;;;;;;;;;;5079406;28;20031;-56
2022/11/24 17:07:55;;;;;;;6.10;1.63;;;;;;;;;;5028565;28;20080;-56
2022/11/24 17:10:33;;;;;;;4.43;2.38;;;;;;;;;;5027915;28;20124;-57
2022/11/24 17:13:24;;;;;;;8.23;2.03;;;;;;;;;;5027586;28;20033;-59
2022/11/24 17:18:59;;;;;;;5.68;2.47;;;;;;;;;;5061153;28;20118;-57
2022/11/24 17:21:58;;;;;;;3.15;1.73;;;;;;;;;;5069915;28;20047;-56
2022/11/24 17:24:27;;;;;;;7.97;2.22;;;;;;;;;;5084582;28;20048;-57
2022/11/24 17:26:59;;;;;;;4.18;2.20;;;;;;;;;;5089467;28;20063;-57
2022/11/24 17:29:44;;;;;;;6.97;2.58;;;;;;;;;;5090590;28;20028;-57
2022/11/24 17:32:33;;;;;;;3.20;2.17;;;;;;;;;;5085014;28;20119;-58
2022/11/24 17:35:16;;;;;;;3.85;2.60;;;;;;;;;;5075339;28;20533;-58
2022/11/24 17:38:17;;;;;;;6.97;2.58;;;;;;;;;;5075806;28;20043;-56
2022/11/24 17:41:07;;;;;;;4.80;3.67;;;;;;;;;;4975430;28;20035;-58
2022/11/24 17:44:10;;;;;;;6.55;2.72;;;;;;;;;;4974778;28;20552;-58
2022/11/24 17:46:42;;;;;;;7.35;3.72;;;;;;;;;;4898268;29;20029;-57
2022/11/24 17:55:37;;;;;;;7.45;4.15;;;;;;;;;;4879154;29;20048;-58
2022/11/24 17:58:31;;;;;;;10.27;4.00;;;;;;;;;;4878015;29;20529;-58
2022/11/24 18:01:18;;;;;;;7.65;4.05;;;;;;;;;;4879919;29;20025;-55
2022/11/24 18:04:25;;;;;;;;;;;;;;;;;;;;;
2022/11/24 18:06:57;;;;;;;9.40;4.10;;;;;;;;;;4880132;29;20063;-58
2022/11/24 18:12:38;;;;;;;11.65;6.15;;;;;;;;;;4924297;28;20042;-58
2022/11/24 18:18:39;;;;;;;8.88;4.20;;;;;;;;;;5075513;28;20040;-58
2022/11/24 18:21:33;;;;;;;8.82;4.85;;;;;;;;;;5055641;28;20079;-57
2022/11/24 18:24:40;;;;;;;9.00;4.53;;;;;;;;;;5075604;28;20024;-59
2022/11/24 18:27:46;;;;;;;;;;;;;;;;;;;;;
2022/11/24 18:30:37;;;;;;;6.93;4.90;;;;;;;;;;5071884;28;20453;-58
2022/11/24 18:33:12;;;;;;;5.85;3.55;;;;;;;;;;5057330;28;20365;-59
2022/11/24 18:36:05;;;;;;;4.47;3.17;;;;;;;;;;5075468;28;20016;-58
2022/11/24 18:41:50;;;;;;;10.30;3.75;;;;;;;;;;5054458;28;20032;-59
2022/11/24 18:44:44;;;;;;;6.28;3.63;;;;;;;;;;5055788;28;20613;-59
2022/11/24 18:53:48;;;;;;;6.93;3.47;;;;;;;;;;4974075;28;20137;-59
2022/11/24 18:56:46;;;;;;;7.25;3.13;;;;;;;;;;4964688;28;20035;-58
2022/11/24 19:02:55;;;;;;;7.72;4.57;;;;;;;;;;5075562;28;20359;-59
2022/11/24 19:05:46;;;;;;;;;;;;;;;;;;;;;
2022/11/24 19:08:33;;;;;;;13.15;6.13;;;;;;;;;;5071267;28;20035;-57
2022/11/24 19:14:30;;;;;;;10.63;6.00;;;;;;;;;;5074962;28;20078;-58
2022/11/24 19:24:12;;;;;;;8.40;5.32;;;;;;;;;;4999215;28;20050;-58
2022/11/24 19:27:09;;;;;;;7.93;4.95;;;;;;;;;;4935031;29;20434;-57
2022/11/24 19:29:35;;;;;;;8.07;5.40;;;;;;;;;;4934569;29;20394;-58
2022/11/24 19:32:18;;;;;;;6.78;4.60;;;;;;;;;;4914348;29;20062;-57
2022/11/24 19:35:09;;;;;;;7.10;4.57;;;;;;;;;;4997293;28;20029;-58
2022/11/24 19:38:03;;;;;;;5.97;4.18;;;;;;;;;;5053788;28;20045;-53
2022/11/24 19:41:04;;;;;;;6.40;4.82;;;;;;;;;;5054120;28;20067;-55
2022/11/24 19:43:59;;;;;;;9.15;5.05;;;;;;;;;;4940164;28;20054;-54
2022/11/24 19:53:00;;;;;;;12.43;6.30;;;;;;;;;;4954768;28;20034;-57
2022/11/24 19:55:36;;;;;;;10.63;5.85;;;;;;;;;;5012344;28;20037;-56
2022/11/24 20:01:32;;;;;;;7.72;4.47;;;;;;;;;;4973085;28;20039;-55
2022/11/24 20:04:31;;;;;;;7.03;4.78;;;;;;;;;;4972659;28;20110;-56
2022/11/24 20:10:38;;;;;;;;;;;;;;;;;;;;;
2022/11/24 20:13:25;;;;;;;5.95;4.07;;;;;;;;;;4900890;29;20566;-56
2022/11/24 20:15:52;;;;;;;7.13;4.55;;;;;;;;;;4958337;28;20560;-56
2022/11/24 20:18:34;;;;;;;9.57;3.33;;;;;;;;;;4996084;28;20520;-57
2022/11/24 20:21:23;;;;;;;6.32;3.67;;;;;;;;;;5007422;28;20058;-53
2022/11/24 20:27:06;;;;;;;11.10;4.15;;;;;;;;;;5057688;28;20072;-56
2022/11/24 20:29:55;;;;;;;9.57;3.63;;;;;;;;;;5058765;28;20398;-55
2022/11/24 20:32:51;;;;;;;10.93;5.25;;;;;;;;;;5074781;28;20439;-55
2022/11/24 20:35:38;;;;;;;;;;;;;;;;;;;;;
2022/11/24 20:41:45;;;;;;;13.32;6.05;;;;;;;;;;5034664;28;20068;-54
2022/11/24 20:44:42;;;;;;;8.10;5.35;;;;;;;;;;5046817;28;20051;-56
2022/11/24 20:47:26;;;;;;;6.03;3.97;;;;;;;;;;5077198;28;20501;-56
2022/11/24 20:50:44;;;;;;;;;;;;;;;;;;;;;
2022/11/24 20:53:34;;;;;;;9.00;5.28;;;;;;;;;;5072885;28;20533;-57
2022/11/24 20:56:31;;;;;;;10.65;5.38;;;;;;;;;;5051073;28;20421;-54
2022/11/24 21:02:26;;;;;;;8.43;4.97;;;;;;;;;;5076761;28;20508;-57
2022/11/24 21:04:58;;;;;;;14.57;5.55;;;;;;;;;;5056411;28;20490;-57
2022/11/24 21:07:33;;;;;;;7.75;5.15;;;;;;;;;;5077828;28;20032;-57
2022/11/24 21:10:17;;;;;;;13.40;6.20;;;;;;;;;;5077751;28;20055;-53
2022/11/24 21:13:17;;;;;;;;;;;;;;;;;;;;;
2022/11/24 21:16:05;;;;;;;8.02;5.75;;;;;;;;;;5073552;28;20477;-55
2022/11/24 21:18:56;;;;;;;7.97;5.78;;;;;;;;;;5034476;28;20033;-57
2022/11/24 21:21:38;;;;;;;6.55;4.75;;;;;;;;;;4999350;28;20037;-57
2022/11/24 21:24:21;;;;;;;7.18;4.72;;;;;;;;;;5035030;28;20025;-56
2022/11/24 21:27:10;;;;;;;8.77;5.32;;;;;;;;;;5018633;28;20021;-57
2022/11/24 21:33:10;;;;;;;6.80;4.38;;;;;;;;;;4960636;28;20038;-54
2022/11/24 21:35:42;;;;;;;14.07;5.88;;;;;;;;;;4959538;28;20043;-55
2022/11/24 21:38:50;;;;;;;9.50;5.40;;;;;;;;;;4976340;28;20094;-57
2022/11/24 21:41:39;;;;;;;;;;;;;;;;;;;;;
2022/11/24 21:45:00;;;;;;;;;;;;;;;;;;;;;
2022/11/24 21:47:49;;;;;;;;;;;;;;;;;;;;;
2022/11/24 21:50:27;;;;;;;9.07;5.72;;;;;;;;;;5054295;28;20374;-55
2022/11/24 21:53:35;;;;;;;14.35;5.03;;;;;;;;;;5075557;28;20100;-55
2022/11/24 21:59:20;;;;;;;14.27;7.07;;;;;;;;;;4992969;28;20034;-54
2022/11/24 22:01:58;;;;;;;6.68;5.07;;;;;;;;;;4987070;28;20098;-57
2022/11/24 22:04:47;;;;;;;8.18;5.22;;;;;;;;;;5075631;28;20042;-54
2022/11/24 22:07:49;;;;;;;11.82;5.88;;;;;;;;;;5070999;28;20043;-57
2022/11/24 22:10:34;;;;;;;6.20;4.90;;;;;;;;;;5068717;28;20195;-56
2022/11/24 22:22:08;;;;;;;5.32;3.78;;;;;;;;;;5089352;28;20130;-56
2022/11/24 22:24:50;;;;;;;8.57;4.90;;;;;;;;;;5089928;28;20049;-57
2022/11/24 22:27:55;;;;;;;11.13;4.40;;;;;;;;;;5089701;28;20088;-53
2022/11/24 22:33:46;;;;;;;4.13;3.53;;;;;;;;;;5046307;28;20165;-57
2022/11/24 22:36:31;;;;;;;5.13;3.38;;;;;;;;;;5048120;28;20068;-57
2022/11/24 22:39:29;;;;;;;4.88;3.55;;;;;;;;;;5030784;28;20090;-56
2022/11/24 22:42:05;;;;;;;5.07;4.05;;;;;;;;;;5042842;28;20039;-58
2022/11/24 22:47:49;;;;;;;9.25;5.25;;;;;;;;;;5078066;28;20024;-54
2022/11/24 22:50:30;;;;;;;5.18;2.90;;;;;;;;;;5070699;28;20113;-57
2022/11/24 22:53:14;;;;;;;4.18;2.53;;;;;;;;;;5071064;28;20100;-57
2022/11/24 22:55:44;;;;;;;3.45;2.63;;;;;;;;;;5026863;28;20034;-55
2022/11/24 22:58:38;;;;;;;6.95;2.25;;;;;;;;;;5027369;28;20038;-56
2022/11/24 23:01:34;;;;;;;6.13;2.80;;;;;;;;;;5027402;28;20026;-55
2022/11/24 23:07:20;;;;;;;2.63;1.73;;;;;;;;;;5011706;28;20226;-55
2022/11/24 23:09:56;;;;;;;6.05;2.40;;;;;;;;;;5026534;28;20088;-56
2022/11/24 23:15:25;;;;;;;7.70;2.47;;;;;;;;;;5027262;28;20052;-57
2022/11/24 23:21:10;;;;;;;3.00;1.50;;;;;;;;;;5027131;28;20037;-54
2022/11/24 23:23:40;;;;;;;5.20;3.35;;;;;;;;;;5008854;28;20119;-56
2022/11/24 23:26:14;;;;;;;5.17;4.70;;;;;;;;;;5025100;28;20075;-55
2022/11/24 23:29:18;;;;;;;3.90;2.30;;;;;;;;;;5068592;28;20104;-55
2022/11/24 23:31:54;;;;;;;4.68;2.30;;;;;;;;;;4987528;28;20037;-56
2022/11/24 23:34:48;;;;;;;4.47;2.17;;;;;;;;;;5068735;28;20040;-55
2022/11/24 23:37:28;;;;;;;4.60;2.92;;;;;;;;;;5068327;28;20079;-57
2022/11/24 23:43:06;;;;;;;3.90;1.95;;;;;;;;;;4987852;28;20054;-54
2022/11/24 23:45:50;;;;;;;6.50;2.65;;;;;;;;;;5055771;28;20075;-57
2022/11/24 23:48:36;;;;;;;3.42;1.83;;;;;;;;;;5072948;28;20082;-54
2022/11/24 23:51:15;;;;;;;3.00;1.83;;;;;;;;;;5054876;28;20029;-58
2022/11/24 23:54:01;;;;;;;4.28;2.50;;;;;;;;;;5072546;28;20048;-57